Airfield :
LOGIN :

Register | Disclaimer

   EN    FR    IT 

 










Legend :    VFR   Marginal VFR   IFR   Intensive IFR   Very Intensive IFR
Visi :
Ceiling :
>= 8 km
>= 3000ft
5 to 8 km
1000 to 3000 ft
1500m to 5 km
500 to 1000 ft
800 to 1500m
200 to 500 ft
< 800m
< 200 ft
Symbols :   Thunderstorms  Fog  Heavy snow  Heavy precipitations  Wind > 20 kt
SIGMETs :     Misc.  Thunderstorms  Icing  Turbulence  Mountain Waves  Volcanic Ashes







- Airport Elevation : 170 ft
- IATA code : BGO


ENBR - Bergen , Flesland

CURRENT METAR :
  • 162150Z 16004KT 100V200 9999 FEW012 11/09 Q1015 RMK WIND 1200FT 17012KT

EXPIRED METARs :
  • 162120Z VRB02KT 9999 FEW012 11/09 Q1015 RMK WIND 1200FT 16013KT
  • 162050Z 17005KT 9999 FEW012 12/10 Q1015 RMK WIND 1200FT 17012KT
  • 162020Z 18004KT 9999 FEW012 FEW020TCU 12/10 Q1015 RMK WIND 1200FT 19012KT
  • 161950Z 19006KT 9999 FEW008 FEW020TCU 13/10 Q1015 RMK WIND 1200FT 18011KT

TAF AMD TAF ENBR
Valid from the 16 at 21:00 until the 17 at 18:00 UTC


1621/1718 13005KT 9999 SCT006 SCT040
BECMG 1709/1712 17015G25KT
TEMPO 1711/1715 4000 SHRA BR BKN008 SCT020CB
BECMG 1713/1715 BKN007
No reported NOTAMs for that airfield.



MET'MAP, your aeronautical weather chart ! - Copyright ORBIFLY December 2007 - Disclaimer

ORBIFLY MET'MAP TEAM :

Programming & Development : Alexandra Zaïnal
Concept & Development : Baudouin d'Aumeries
Co-Development & Prog : Marc-Olivier Méhu
Technical & hardware support : Manuel Goepfert

Contact : metmap@orbifly.com




SOURCES & CREDITS :

   NOAA